Time;durP1;ratioP1;P1;durP2;ratioP2;P2;SDS_P1;SDS_P2;PMS_P1;PMS_P2;Temp;Humidity;BMP_temperature;BMP_pressure;BME280_temperature;BME280_humidity;BME280_pressure;Samples;Min_cycle;Max_cycle;Signal;HPM_P1;HPM_P2
2022/01/13 00:00:13;;;;;;;218.32;21.45;;;4.60;99.90;;;;;;6187314;23;20082;-82
2022/01/13 00:02:39;;;;;;;228.13;23.50;;;4.60;99.90;;;;;;6188082;23;20016;-83
2022/01/13 00:05:05;;;;;;;279.85;26.05;;;4.60;99.90;;;;;;6186994;23;20074;-83
2022/01/13 00:07:31;;;;;;;190.25;20.83;;;4.60;99.90;;;;;;6162593;23;20013;-83
2022/01/13 00:09:56;;;;;;;301.65;29.45;;;4.70;99.90;;;;;;6185046;23;20013;-83
2022/01/13 00:12:26;;;;;;;305.05;26.92;;;4.60;99.90;;;;;;6186311;23;20409;-83
2022/01/13 00:15:07;;;;;;;204.18;22.40;;;4.60;99.90;;;;;;6186732;23;20016;-83
2022/01/13 00:17:56;;;;;;;237.82;23.55;;;4.70;99.90;;;;;;6187463;23;20442;-83
2022/01/13 00:20:32;;;;;;;235.68;24.13;;;4.70;99.90;;;;;;6187255;23;20371;-83
2022/01/13 00:25:42;;;;;;;274.08;28.13;;;4.70;99.90;;;;;;6187635;23;20463;-83
2022/01/13 00:28:16;;;;;;;293.95;25.42;;;4.70;99.90;;;;;;6216268;23;20492;-83
2022/01/13 00:30:43;;;;;;;290.00;27.35;;;4.70;99.90;;;;;;6189225;23;20012;-83
2022/01/13 00:33:11;;;;;;;338.45;29.70;;;4.70;99.90;;;;;;6188986;23;20031;-83
2022/01/13 00:35:37;;;;;;;239.50;23.73;;;4.70;99.90;;;;;;6187732;23;20004;-83
2022/01/13 00:38:03;;;;;;;258.58;24.42;;;4.70;99.90;;;;;;6184921;23;20020;-83
2022/01/13 00:40:28;;;;;;;296.58;27.63;;;4.70;99.90;;;;;;6186430;23;20022;-83
2022/01/13 00:42:54;;;;;;;304.48;27.02;;;4.70;99.90;;;;;;6187927;23;20055;-83
2022/01/13 00:45:19;;;;;;;356.50;32.35;;;4.70;99.90;;;;;;6187387;23;20024;-83
2022/01/13 00:47:45;;;;;;;329.45;27.38;;;4.70;99.90;;;;;;6186491;23;20171;-83
2022/01/13 00:50:11;;;;;;;324.13;28.15;;;4.70;99.90;;;;;;6186925;23;20015;-83
2022/01/13 00:52:36;;;;;;;294.00;26.60;;;4.70;99.90;;;;;;6185797;23;20019;-83
2022/01/13 00:55:07;;;;;;;281.52;25.13;;;4.70;99.90;;;;;;6211861;23;20023;-83
2022/01/13 00:57:33;;;;;;;287.85;26.63;;;4.70;99.90;;;;;;6186823;23;20027;-83
2022/01/13 00:59:59;;;;;;;238.18;22.70;;;4.70;99.90;;;;;;6186541;23;20468;-83
2022/01/13 01:02:26;;;;;;;245.20;24.17;;;4.80;99.90;;;;;;6187276;23;20346;-83
2022/01/13 01:04:51;;;;;;;223.98;20.65;;;4.70;99.90;;;;;;6186477;23;20016;-84
2022/01/13 01:07:17;;;;;;;264.92;23.58;;;4.80;99.90;;;;;;6161903;23;20020;-83
2022/01/13 01:09:49;;;;;;;282.20;24.40;;;4.70;99.90;;;;;;6161063;23;20347;-83
2022/01/13 01:12:16;;;;;;;243.75;22.10;;;4.80;99.90;;;;;;6186709;23;20047;-83
2022/01/13 01:14:47;;;;;;;246.55;25.40;;;4.80;99.90;;;;;;6159407;23;20092;-83
2022/01/13 01:17:16;;;;;;;258.00;24.60;;;4.80;99.90;;;;;;6186176;23;20024;-83
2022/01/13 01:19:44;;;;;;;241.07;23.90;;;4.80;99.90;;;;;;6186784;23;20055;-83
2022/01/13 01:25:02;;;;;;;269.13;25.83;;;4.70;99.90;;;;;;6187560;23;20118;-83
2022/01/13 01:27:34;;;;;;;315.77;26.67;;;4.80;99.90;;;;;;6162753;23;20017;-83
2022/01/13 01:30:09;;;;;;;246.10;24.55;;;4.80;99.90;;;;;;6165343;23;20079;-83
2022/01/13 01:32:37;;;;;;;349.10;30.35;;;4.80;99.90;;;;;;6188998;23;20040;-83
2022/01/13 01:35:04;;;;;;;302.08;25.92;;;4.70;99.90;;;;;;6163450;23;20026;-83
2022/01/13 01:37:30;;;;;;;283.02;26.98;;;4.80;99.90;;;;;;6187833;23;20474;-83
2022/01/13 01:39:59;;;;;;;240.38;23.08;;;4.70;99.90;;;;;;6188684;23;20012;-83
2022/01/13 01:42:26;;;;;;;240.65;23.77;;;4.70;99.90;;;;;;6188381;23;20020;-83
2022/01/13 01:44:55;;;;;;;267.80;25.30;;;4.70;99.90;;;;;;6188146;23;20074;-83
2022/01/13 01:47:24;;;;;;;269.08;24.02;;;4.70;99.90;;;;;;6163363;23;20415;-83
2022/01/13 01:49:55;;;;;;;319.65;29.77;;;4.70;99.90;;;;;;6189014;23;20350;-83
2022/01/13 01:52:20;;;;;;;273.65;24.42;;;4.70;99.90;;;;;;6188157;23;20063;-83
2022/01/13 01:54:48;;;;;;;239.60;23.52;;;4.70;99.90;;;;;;6185884;23;20020;-83
2022/01/13 01:57:15;;;;;;;248.25;24.70;;;4.70;99.90;;;;;;6188888;23;20017;-83
2022/01/13 01:59:42;;;;;;;244.55;24.08;;;4.70;99.90;;;;;;6190498;23;20016;-83
2022/01/13 02:02:10;;;;;;;246.82;23.75;;;4.70;99.90;;;;;;6188442;23;20020;-83
2022/01/13 02:04:36;;;;;;;219.90;21.33;;;4.70;99.90;;;;;;6188670;23;20493;-83
2022/01/13 02:07:05;;;;;;;270.88;21.98;;;4.70;99.90;;;;;;6188045;23;20427;-83
2022/01/13 02:09:30;;;;;;;253.18;23.30;;;4.60;99.90;;;;;;6187315;23;20481;-83
2022/01/13 02:12:03;;;;;;;247.27;21.95;;;4.70;99.90;;;;;;6187488;23;20096;-83
2022/01/13 02:17:10;;;;;;;282.80;24.80;;;4.60;99.90;;;;;;6187591;23;20028;-83
2022/01/13 02:19:46;;;;;;;310.25;26.40;;;4.70;99.90;;;;;;6187373;23;20407;-83
2022/01/13 02:22:12;;;;;;;231.32;22.45;;;4.60;99.90;;;;;;6186053;23;20016;-83
2022/01/13 02:24:38;;;;;;;265.63;23.05;;;4.60;99.90;;;;;;6161616;23;20091;-83
2022/01/13 02:27:06;;;;;;;296.83;26.73;;;4.60;99.90;;;;;;6186719;23;20346;-83
2022/01/13 02:29:33;;;;;;;294.70;24.63;;;4.60;99.90;;;;;;6163787;23;20015;-84
2022/01/13 02:31:59;;;;;;;316.90;27.60;;;4.60;99.90;;;;;;6188717;23;20012;-83
2022/01/13 02:34:24;;;;;;;278.10;24.80;;;4.60;99.90;;;;;;6162999;23;20027;-83
2022/01/13 02:36:54;;;;;;;254.02;22.42;;;4.60;99.90;;;;;;6188260;23;20052;-83
2022/01/13 02:39:27;;;;;;;267.48;22.52;;;4.50;99.90;;;;;;6186815;23;20091;-83
2022/01/13 02:41:53;;;;;;;264.83;24.42;;;4.50;99.90;;;;;;6189220;23;20009;-83
2022/01/13 02:44:22;;;;;;;296.45;24.17;;;4.50;99.90;;;;;;6188574;23;20362;-83
2022/01/13 02:49:17;;;;;;;259.75;23.52;;;4.50;99.90;;;;;;6189288;23;20020;-83
2022/01/13 02:51:45;;;;;;;272.92;24.60;;;4.50;99.90;;;;;;6188255;23;20013;-83
2022/01/13 02:54:10;;;;;;;267.77;24.23;;;4.50;99.90;;;;;;6187915;23;20013;-83
2022/01/13 02:56:37;;;;;;;262.65;23.10;;;4.50;99.90;;;;;;6163688;23;20059;-83
2022/01/13 02:59:04;;;;;;;271.95;23.83;;;4.50;99.90;;;;;;6189064;23;20016;-83
2022/01/13 03:01:30;;;;;;;302.25;25.15;;;4.50;99.90;;;;;;6189437;23;20029;-83
2022/01/13 03:03:56;;;;;;;230.43;21.23;;;4.50;99.90;;;;;;6188566;23;20012;-83
2022/01/13 03:06:33;;;;;;;241.90;23.15;;;4.50;99.90;;;;;;6187128;23;20013;-83
2022/01/13 03:08:58;;;;;;;220.20;21.50;;;4.40;99.90;;;;;;6187982;23;20012;-84
2022/01/13 03:11:31;;;;;;;205.70;21.25;;;4.50;99.90;;;;;;6189476;23;20342;-83
2022/01/13 03:13:57;;;;;;;225.65;20.58;;;4.50;99.90;;;;;;6188758;23;20020;-83
2022/01/13 03:16:23;;;;;;;285.98;23.98;;;4.40;99.90;;;;;;6165374;23;20009;-83
2022/01/13 03:18:49;;;;;;;251.93;24.38;;;4.50;99.90;;;;;;6188791;23;20038;-84
2022/01/13 03:21:14;;;;;;;295.13;24.05;;;4.40;99.90;;;;;;6189305;23;20024;-83
2022/01/13 03:23:40;;;;;;;237.98;23.42;;;4.40;99.90;;;;;;6187318;23;20020;-83
2022/01/13 03:26:06;;;;;;;297.55;24.45;;;4.40;99.90;;;;;;6163725;23;20040;-83
2022/01/13 03:28:38;;;;;;;254.48;22.23;;;4.40;99.90;;;;;;6187370;23;20389;-83
2022/01/13 03:31:05;;;;;;;207.68;19.17;;;4.40;99.90;;;;;;6188417;23;20016;-83
2022/01/13 03:33:31;;;;;;;268.20;23.38;;;4.40;99.90;;;;;;6188708;23;20009;-83
2022/01/13 03:35:58;;;;;;;177.43;18.50;;;4.40;99.90;;;;;;6212392;23;20016;-83
2022/01/13 03:38:25;;;;;;;240.15;21.52;;;4.40;99.90;;;;;;6187253;23;20012;-84
2022/01/13 03:40:51;;;;;;;245.35;22.17;;;4.50;99.90;;;;;;6187965;23;20362;-83
2022/01/13 03:43:17;;;;;;;238.98;22.58;;;4.50;99.90;;;;;;6188495;23;20040;-83
2022/01/13 03:45:45;;;;;;;191.05;17.58;;;4.40;99.90;;;;;;6188233;23;20012;-83
2022/01/13 03:48:13;;;;;;;208.85;19.92;;;4.50;99.90;;;;;;6187643;23;20036;-83
2022/01/13 03:50:40;;;;;;;237.98;20.88;;;4.50;99.90;;;;;;6187777;23;20011;-83
2022/01/13 03:53:24;;;;;;;198.23;19.70;;;4.50;99.90;;;;;;6187397;23;20013;-82
2022/01/13 03:56:26;;;;;;;252.25;22.35;;;4.50;99.90;;;;;;6186496;23;20016;-83
2022/01/13 03:59:33;;;;;;;179.55;17.65;;;4.50;99.90;;;;;;6187805;23;20417;-83
2022/01/13 04:02:08;;;;;;;177.15;17.60;;;4.50;99.90;;;;;;6188472;23;20518;-83
2022/01/13 04:04:37;;;;;;;199.82;18.75;;;4.50;99.90;;;;;;6187753;23;20059;-82
2022/01/13 04:07:09;;;;;;;175.13;17.60;;;4.50;99.90;;;;;;6187662;23;20023;-83
2022/01/13 04:09:35;;;;;;;191.95;19.75;;;4.50;99.90;;;;;;6186569;23;20040;-83
2022/01/13 04:12:05;;;;;;;230.82;21.40;;;4.50;99.90;;;;;;6188145;23;20030;-82
2022/01/13 04:14:39;;;;;;;151.60;17.65;;;4.50;99.90;;;;;;6187250;23;20103;-83
2022/01/13 04:17:05;;;;;;;155.20;17.77;;;4.50;99.90;;;;;;6163420;23;20019;-83
2022/01/13 04:19:31;;;;;;;142.02;17.50;;;4.50;99.90;;;;;;6186868;23;20027;-83
2022/01/13 04:21:57;;;;;;;145.68;16.48;;;4.50;99.90;;;;;;6187488;23;20044;-83
2022/01/13 04:24:22;;;;;;;138.15;14.50;;;4.50;99.90;;;;;;6162392;23;20023;-83
2022/01/13 04:26:48;;;;;;;111.63;12.95;;;4.40;99.90;;;;;;6188657;23;20324;-83
2022/01/13 04:31:49;;;;;;;88.10;13.43;;;4.40;99.90;;;;;;6186989;23;20068;-83
2022/01/13 04:34:15;;;;;;;114.50;14.77;;;4.40;99.90;;;;;;6188035;23;20013;-83
2022/01/13 04:36:40;;;;;;;123.47;15.48;;;4.40;99.90;;;;;;6214734;23;20027;-83
2022/01/13 04:39:08;;;;;;;141.50;16.70;;;4.40;99.90;;;;;;6187993;23;20008;-83
2022/01/13 04:41:36;;;;;;;189.73;19.92;;;4.40;99.90;;;;;;6187695;23;20020;-83
2022/01/13 04:44:06;;;;;;;167.65;18.30;;;4.40;99.90;;;;;;6187631;23;20035;-83
2022/01/13 04:46:32;;;;;;;201.65;18.95;;;4.40;99.90;;;;;;6187361;23;20488;-83
2022/01/13 04:48:59;;;;;;;222.10;22.25;;;4.40;99.90;;;;;;6187654;23;20040;-83
2022/01/13 04:51:26;;;;;;;238.52;21.58;;;4.40;99.90;;;;;;6163314;23;20012;-83
2022/01/13 04:53:51;;;;;;;181.57;17.80;;;4.40;99.90;;;;;;6186970;23;20343;-83
2022/01/13 04:56:28;;;;;;;157.63;17.23;;;4.40;99.90;;;;;;6187365;23;20016;-83
2022/01/13 04:58:54;;;;;;;188.75;18.30;;;4.40;99.90;;;;;;6164164;23;20404;-83
2022/01/13 05:01:19;;;;;;;189.43;17.85;;;4.40;99.90;;;;;;6187402;23;20017;-83
2022/01/13 05:03:45;;;;;;;213.63;19.50;;;4.40;99.90;;;;;;6189023;23;20047;-83
2022/01/13 05:06:12;;;;;;;161.45;17.83;;;4.40;99.90;;;;;;6189484;23;20086;-83
2022/01/13 05:08:38;;;;;;;152.20;17.45;;;4.40;99.90;;;;;;6188254;23;20012;-83
2022/01/13 05:11:04;;;;;;;176.07;17.90;;;4.40;99.90;;;;;;6189370;23;20092;-83
2022/01/13 05:13:30;;;;;;;234.90;21.95;;;4.40;99.90;;;;;;6190285;23;20009;-83
2022/01/13 05:15:56;;;;;;;201.25;21.85;;;4.30;99.90;;;;;;6189992;23;20381;-83
2022/01/13 05:18:42;;;;;;;202.82;20.00;;;4.40;99.90;;;;;;6190176;23;20151;-83
2022/01/13 05:21:18;;;;;;;206.68;19.42;;;4.30;99.90;;;;;;6164739;23;20023;-83
2022/01/13 05:23:44;;;;;;;177.38;18.75;;;4.30;99.90;;;;;;6188589;23;20050;-83
2022/01/13 05:26:10;;;;;;;171.48;17.95;;;4.30;99.90;;;;;;6165228;23;20018;-83
2022/01/13 05:28:37;;;;;;;174.73;18.48;;;4.30;99.90;;;;;;6165885;23;20083;-83
2022/01/13 05:31:03;;;;;;;173.20;17.98;;;4.30;99.90;;;;;;6189731;23;20048;-83
2022/01/13 05:33:28;;;;;;;159.50;19.15;;;4.30;99.90;;;;;;6164511;23;20093;-83
2022/01/13 05:35:54;;;;;;;186.05;19.42;;;4.30;99.90;;;;;;6213713;23;20055;-83
2022/01/13 05:38:20;;;;;;;170.55;17.70;;;4.30;99.90;;;;;;6189008;23;20016;-83
2022/01/13 05:40:46;;;;;;;160.48;16.48;;;4.30;99.90;;;;;;6189526;23;20008;-83
2022/01/13 05:43:11;;;;;;;162.98;17.60;;;4.30;99.90;;;;;;6189089;23;20040;-83
2022/01/13 05:45:40;;;;;;;210.38;20.05;;;4.20;99.90;;;;;;6164203;23;20016;-83
2022/01/13 05:48:06;;;;;;;233.52;25.30;;;4.30;99.90;;;;;;6164130;23;20346;-83
2022/01/13 05:50:32;;;;;;;232.95;20.48;;;4.30;99.90;;;;;;6188239;23;20016;-84
2022/01/13 05:52:57;;;;;;;228.95;21.08;;;4.30;99.90;;;;;;6163742;23;20013;-83
2022/01/13 05:55:24;;;;;;;112.45;14.38;;;4.30;99.90;;;;;;6164421;23;20021;-83
2022/01/13 05:57:49;;;;;;;254.73;24.67;;;4.30;99.90;;;;;;6189393;23;20017;-83
2022/01/13 06:00:18;;;;;;;216.68;20.67;;;4.30;99.90;;;;;;6189364;23;20481;-83
2022/01/13 06:02:44;;;;;;;202.40;21.80;;;4.30;99.90;;;;;;6189941;23;20012;-83
2022/01/13 06:05:10;;;;;;;225.90;22.98;;;4.30;99.90;;;;;;6188832;23;20090;-83
2022/01/13 06:07:37;;;;;;;200.07;21.95;;;4.30;99.90;;;;;;6163533;23;20083;-82
2022/01/13 06:10:05;;;;;;;179.40;20.40;;;4.30;99.90;;;;;;6187913;23;20012;-83
2022/01/13 06:12:36;;;;;;;194.60;18.95;;;4.30;99.90;;;;;;6163551;23;20308;-83
2022/01/13 06:15:06;;;;;;;190.55;20.75;;;4.20;99.90;;;;;;6188954;23;20087;-83
2022/01/13 06:17:32;;;;;;;190.88;20.17;;;4.20;99.90;;;;;;6189645;23;20087;-82
2022/01/13 06:19:59;;;;;;;218.35;20.67;;;4.20;99.90;;;;;;6162466;23;20016;-83
2022/01/13 06:22:25;;;;;;;210.07;22.48;;;4.20;99.90;;;;;;6163408;23;20128;-82
2022/01/13 06:24:52;;;;;;;199.52;20.75;;;4.20;99.90;;;;;;6184980;23;20029;-83
2022/01/13 06:27:19;;;;;;;184.18;20.33;;;4.20;99.90;;;;;;6187759;23;20749;-83
2022/01/13 06:29:45;;;;;;;183.35;21.13;;;4.20;99.90;;;;;;6188246;23;20015;-83
2022/01/13 06:32:10;;;;;;;194.55;21.08;;;4.20;99.90;;;;;;6212948;23;20044;-83
2022/01/13 06:34:36;;;;;;;243.70;23.10;;;4.20;99.90;;;;;;6163543;23;20019;-84
2022/01/13 06:37:02;;;;;;;190.85;21.02;;;4.20;99.90;;;;;;6189151;23;20459;-83
2022/01/13 06:39:28;;;;;;;221.77;23.60;;;4.20;99.90;;;;;;6184710;23;20095;-83
2022/01/13 06:41:53;;;;;;;188.20;21.45;;;4.20;99.90;;;;;;6188818;23;20020;-83
2022/01/13 06:44:19;;;;;;;229.52;23.38;;;4.20;99.90;;;;;;6188156;23;20017;-83
2022/01/13 06:46:45;;;;;;;194.30;20.20;;;4.20;99.90;;;;;;6188285;23;20167;-83
2022/01/13 06:49:10;;;;;;;222.40;25.55;;;4.20;99.90;;;;;;6164486;23;20023;-83
2022/01/13 06:51:36;;;;;;;226.07;23.38;;;4.20;99.90;;;;;;6187985;23;20008;-83
2022/01/13 06:54:02;;;;;;;238.93;23.75;;;4.20;99.90;;;;;;6162335;23;20019;-82
2022/01/13 06:56:27;;;;;;;233.98;24.65;;;4.20;99.90;;;;;;6163324;23;20021;-83
2022/01/13 06:58:54;;;;;;;257.30;26.00;;;4.20;99.90;;;;;;6188776;23;20505;-83
2022/01/13 07:01:22;;;;;;;205.43;22.50;;;4.20;99.90;;;;;;6160045;23;20089;-83
2022/01/13 07:03:48;;;;;;;223.73;21.85;;;4.20;99.90;;;;;;6184360;23;20024;-83
2022/01/13 07:06:13;;;;;;;199.63;22.08;;;4.20;99.90;;;;;;6158124;23;20095;-83
2022/01/13 07:08:39;;;;;;;191.30;21.13;;;4.20;99.90;;;;;;6182845;23;20063;-83
2022/01/13 07:11:05;;;;;;;192.95;21.77;;;4.20;99.90;;;;;;6182998;23;20019;-83
2022/01/13 07:13:32;;;;;;;204.98;20.98;;;4.20;99.90;;;;;;6186327;23;20019;-83
2022/01/13 07:16:02;;;;;;;225.07;22.55;;;4.30;99.90;;;;;;6185204;23;20024;-83
2022/01/13 07:18:28;;;;;;;245.82;22.10;;;4.30;99.90;;;;;;6183111;23;20067;-83
2022/01/13 07:20:56;;;;;;;294.25;27.33;;;4.30;99.90;;;;;;6185043;23;20024;-83
2022/01/13 07:23:22;;;;;;;224.82;22.75;;;4.30;99.90;;;;;;6180372;23;20020;-82
2022/01/13 07:25:48;;;;;;;213.32;25.30;;;4.30;99.90;;;;;;6184606;23;20035;-82
2022/01/13 07:28:14;;;;;;;212.63;23.08;;;4.30;99.90;;;;;;6184767;23;20013;-82
2022/01/13 07:30:39;;;;;;;202.63;23.25;;;4.30;99.90;;;;;;6186297;23;20020;-82
2022/01/13 07:33:05;;;;;;;206.15;21.98;;;4.30;99.90;;;;;;6184810;23;20016;-83
2022/01/13 07:35:30;;;;;;;195.55;21.77;;;4.30;99.90;;;;;;6184093;23;20047;-83
2022/01/13 07:37:56;;;;;;;214.50;20.85;;;4.30;99.90;;;;;;6184740;23;20051;-83
2022/01/13 07:40:22;;;;;;;233.90;22.75;;;4.30;99.90;;;;;;6158541;23;20052;-83
2022/01/13 07:42:48;;;;;;;169.15;17.75;;;4.30;99.90;;;;;;6161161;23;20021;-83
2022/01/13 07:45:15;;;;;;;206.90;23.35;;;4.30;99.90;;;;;;6212088;23;20461;-82
2022/01/13 07:47:41;;;;;;;190.57;19.75;;;4.30;99.90;;;;;;6159871;23;20094;-83
2022/01/13 07:50:09;;;;;;;213.02;22.42;;;4.30;99.90;;;;;;6184635;23;20044;-84
2022/01/13 07:52:35;;;;;;;227.10;23.73;;;4.30;99.90;;;;;;6161320;23;20048;-82
2022/01/13 07:55:01;;;;;;;198.98;19.90;;;4.30;99.90;;;;;;6185000;23;20020;-82
2022/01/13 07:57:27;;;;;;;188.50;20.98;;;4.30;99.90;;;;;;6186894;23;20013;-82
2022/01/13 07:59:52;;;;;;;181.43;19.83;;;4.30;99.90;;;;;;6185670;23;20537;-82
2022/01/13 08:02:18;;;;;;;189.93;21.67;;;4.40;99.90;;;;;;6185551;23;20047;-82
2022/01/13 08:04:44;;;;;;;139.25;18.35;;;4.40;99.90;;;;;;6188138;23;20024;-81
2022/01/13 08:07:10;;;;;;;146.93;18.25;;;4.40;99.90;;;;;;6160426;23;20028;-82
2022/01/13 08:09:35;;;;;;;118.18;18.08;;;4.40;99.90;;;;;;6160021;23;20447;-83
2022/01/13 08:12:01;;;;;;;144.25;17.42;;;4.40;99.90;;;;;;6185841;23;20039;-83
2022/01/13 08:14:26;;;;;;;153.70;19.65;;;4.40;99.90;;;;;;6211507;23;20008;-82
2022/01/13 08:16:56;;;;;;;149.95;20.60;;;4.40;99.90;;;;;;6161608;23;20086;-82
2022/01/13 08:22:06;;;;;;;161.07;19.17;;;4.50;99.90;;;;;;6183668;23;20535;-82
2022/01/13 08:24:32;;;;;;;182.48;20.35;;;4.50;99.90;;;;;;6184075;23;20044;-82
2022/01/13 08:26:57;;;;;;;173.90;20.65;;;4.50;99.90;;;;;;6184668;23;20016;-82
2022/01/13 08:29:23;;;;;;;159.80;19.85;;;4.50;99.90;;;;;;6185827;23;20020;-81
2022/01/13 08:31:49;;;;;;;179.43;20.25;;;4.50;99.90;;;;;;6184757;23;20335;-83
2022/01/13 08:34:16;;;;;;;157.50;18.35;;;4.50;99.90;;;;;;6184352;23;20020;-82
2022/01/13 08:36:42;;;;;;;144.70;19.10;;;4.60;99.90;;;;;;6181095;23;20070;-82
2022/01/13 08:39:08;;;;;;;144.32;18.95;;;4.60;99.90;;;;;;6183431;23;20070;-82
2022/01/13 08:41:34;;;;;;;113.22;16.08;;;4.60;99.90;;;;;;6189423;23;20016;-81
2022/01/13 08:43:59;;;;;;;145.50;18.45;;;4.60;99.90;;;;;;6225841;23;20012;-82
2022/01/13 08:46:26;;;;;;;170.02;21.67;;;4.60;99.90;;;;;;6189662;23;20390;-82
2022/01/13 08:48:54;;;;;;;138.57;17.25;;;4.60;99.90;;;;;;6189625;23;20008;-82
2022/01/13 08:51:20;;;;;;;157.85;20.17;;;4.60;99.90;;;;;;6185045;23;20012;-82
2022/01/13 08:53:46;;;;;;;174.20;20.42;;;4.60;99.90;;;;;;6158112;23;20343;-82
2022/01/13 08:56:13;;;;;;;148.07;18.40;;;4.70;99.90;;;;;;6183928;23;20461;-82
2022/01/13 08:58:39;;;;;;;154.13;20.20;;;4.70;99.90;;;;;;6185094;23;20382;-82
2022/01/13 09:01:07;;;;;;;141.13;19.27;;;4.70;99.90;;;;;;6184655;23;20015;-82
2022/01/13 09:03:33;;;;;;;180.45;20.95;;;4.80;99.90;;;;;;6184039;23;20012;-82
2022/01/13 09:05:58;;;;;;;154.15;18.90;;;4.80;99.90;;;;;;6183891;23;20012;-82
2022/01/13 09:08:24;;;;;;;148.32;19.17;;;4.70;99.90;;;;;;6185207;23;20017;-82
2022/01/13 09:10:50;;;;;;;168.75;20.42;;;4.80;99.90;;;;;;6159926;23;20013;-83
2022/01/13 09:13:16;;;;;;;169.20;22.08;;;4.80;99.90;;;;;;6184488;23;20020;-82
2022/01/13 09:15:47;;;;;;;153.80;21.08;;;4.80;99.90;;;;;;6184414;23;20031;-82
2022/01/13 09:18:31;;;;;;;154.38;19.45;;;4.80;99.90;;;;;;6185537;23;20013;-83
2022/01/13 09:20:57;;;;;;;165.77;18.63;;;4.80;99.90;;;;;;6184350;23;20028;-83
2022/01/13 09:23:23;;;;;;;133.65;19.10;;;4.90;99.90;;;;;;6184682;23;20023;-83
2022/01/13 09:25:48;;;;;;;186.15;22.92;;;4.90;99.90;;;;;;6183695;23;20567;-82
2022/01/13 09:28:14;;;;;;;171.65;21.83;;;4.90;99.90;;;;;;6159075;23;20355;-82
2022/01/13 09:30:39;;;;;;;165.23;20.63;;;4.90;99.90;;;;;;6161041;23;20016;-82
2022/01/13 09:33:06;;;;;;;146.20;19.15;;;4.90;99.90;;;;;;6184053;23;20054;-82
2022/01/13 09:35:33;;;;;;;153.18;20.02;;;5.00;99.90;;;;;;6182860;23;20021;-82
2022/01/13 09:37:59;;;;;;;133.60;19.02;;;5.00;99.90;;;;;;6183551;23;20013;-82
2022/01/13 09:40:25;;;;;;;145.82;20.00;;;5.00;99.90;;;;;;6183718;23;20016;-82
2022/01/13 09:42:51;;;;;;;139.73;19.48;;;5.00;99.90;;;;;;6184222;23;20021;-82
2022/01/13 09:45:18;;;;;;;168.35;20.33;;;5.00;99.90;;;;;;6184900;23;20462;-82
2022/01/13 09:47:45;;;;;;;144.02;20.67;;;5.10;99.90;;;;;;6160053;23;20319;-83
2022/01/13 09:50:16;;;;;;;126.60;17.88;;;5.10;99.90;;;;;;6186343;23;20009;-83
2022/01/13 09:52:43;;;;;;;135.00;18.55;;;5.10;99.90;;;;;;6186617;23;20017;-83
2022/01/13 09:55:10;;;;;;;123.78;17.92;;;5.10;99.90;;;;;;6185230;23;20056;-82
2022/01/13 09:57:43;;;;;;;127.68;18.75;;;5.10;99.90;;;;;;6186643;23;20021;-83
2022/01/13 10:00:11;;;;;;;123.80;17.95;;;5.20;99.90;;;;;;6188095;23;20027;-82
2022/01/13 10:02:36;;;;;;;149.50;21.25;;;5.10;99.90;;;;;;6162708;23;20052;-82
2022/01/13 10:05:02;;;;;;;127.22;18.35;;;5.20;99.90;;;;;;6162329;23;20020;-82
2022/01/13 10:07:33;;;;;;;131.88;20.45;;;5.20;99.90;;;;;;6161533;23;20012;-83
2022/01/13 10:10:04;;;;;;;144.65;18.52;;;5.20;99.90;;;;;;6161332;23;20115;-82
2022/01/13 10:12:37;;;;;;;133.23;18.92;;;5.20;99.90;;;;;;6185922;23;20522;-82
2022/01/13 10:18:05;;;;;;;158.50;20.38;;;5.20;99.90;;;;;;6185518;23;20020;-82
2022/01/13 10:20:32;;;;;;;150.52;20.45;;;5.20;99.90;;;;;;6186227;23;20103;-82
2022/01/13 10:23:09;;;;;;;150.43;19.17;;;5.20;99.90;;;;;;6185261;23;20525;-83
2022/01/13 10:25:39;;;;;;;160.05;20.55;;;5.20;99.90;;;;;;6185015;23;20023;-83
2022/01/13 10:28:22;;;;;;;172.77;20.88;;;5.20;99.90;;;;;;6185977;23;20020;-83
2022/01/13 10:30:50;;;;;;;158.43;20.80;;;5.20;99.90;;;;;;6186710;23;20044;-83
2022/01/13 10:33:22;;;;;;;132.95;17.92;;;5.30;99.90;;;;;;6162125;23;20109;-83
2022/01/13 10:35:50;;;;;;;144.10;18.92;;;5.30;99.90;;;;;;6184852;23;20017;-83
2022/01/13 10:38:17;;;;;;;165.93;21.67;;;5.30;99.90;;;;;;6186176;23;20021;-83
2022/01/13 10:40:47;;;;;;;154.50;20.38;;;5.30;99.90;;;;;;6160287;23;20023;-82
2022/01/13 10:43:15;;;;;;;154.43;18.95;;;5.30;99.90;;;;;;6161134;23;20039;-82
2022/01/13 10:45:53;;;;;;;180.63;21.77;;;5.30;99.90;;;;;;6185295;23;20013;-82
2022/01/13 10:48:23;;;;;;;110.88;18.08;;;5.30;99.90;;;;;;6185910;23;20017;-82
2022/01/13 10:50:55;;;;;;;122.95;17.00;;;5.30;99.90;;;;;;6160835;23;20015;-83
2022/01/13 10:53:25;;;;;;;92.18;16.95;;;5.20;99.90;;;;;;6185459;23;20016;-83
2022/01/13 10:55:59;;;;;;;132.23;19.52;;;5.30;99.90;;;;;;6182929;23;20025;-83
2022/01/13 10:58:33;;;;;;;103.13;17.33;;;5.20;99.90;;;;;;6184293;23;20016;-83
2022/01/13 11:01:00;;;;;;;121.80;19.80;;;5.20;99.90;;;;;;6158988;23;20455;-82
2022/01/13 11:03:28;;;;;;;135.52;19.10;;;5.20;99.90;;;;;;6184618;23;20327;-83
2022/01/13 11:06:00;;;;;;;126.25;19.88;;;5.30;99.90;;;;;;6182671;23;20012;-83
2022/01/13 11:08:39;;;;;;;151.27;19.20;;;5.30;99.90;;;;;;6160023;23;20087;-83
2022/01/13 11:11:04;;;;;;;141.63;19.73;;;5.30;99.90;;;;;;6185245;23;20096;-83
2022/01/13 11:13:36;;;;;;;102.78;18.45;;;5.30;99.90;;;;;;6183285;23;20542;-83
2022/01/13 11:16:03;;;;;;;144.65;20.75;;;5.30;99.90;;;;;;6181495;23;20347;-83
2022/01/13 11:18:31;;;;;;;95.30;15.70;;;5.30;99.90;;;;;;6159054;23;20020;-83
2022/01/13 11:20:59;;;;;;;101.00;18.40;;;5.30;99.90;;;;;;6184092;23;20020;-84
2022/01/13 11:23:25;;;;;;;117.25;17.60;;;5.40;99.90;;;;;;6185245;23;20024;-83
2022/01/13 11:25:54;;;;;;;105.07;20.00;;;5.30;99.90;;;;;;6180661;23;20451;-82
2022/01/13 11:28:21;;;;;;;117.03;18.17;;;5.40;99.90;;;;;;6183211;23;20395;-83
2022/01/13 11:30:50;;;;;;;104.18;18.83;;;5.40;99.90;;;;;;6184162;23;20068;-83
2022/01/13 11:33:17;;;;;;;95.32;17.17;;;5.40;99.90;;;;;;6184977;23;20048;-82
2022/01/13 11:35:48;;;;;;;98.45;18.13;;;5.40;99.90;;;;;;6182693;23;20066;-83
2022/01/13 11:38:18;;;;;;;91.05;16.65;;;5.50;99.90;;;;;;6183334;23;20031;-83
2022/01/13 11:40:58;;;;;;;79.95;16.88;;;5.50;99.90;;;;;;6182079;23;20032;-83
2022/01/13 11:43:30;;;;;;;87.70;16.00;;;5.50;99.90;;;;;;6184718;23;20009;-82
2022/01/13 11:46:00;;;;;;;115.30;18.65;;;5.50;99.90;;;;;;6182997;23;20115;-82
2022/01/13 11:48:29;;;;;;;90.72;17.15;;;5.50;99.90;;;;;;6182766;23;20139;-82
2022/01/13 11:51:17;;;;;;;93.22;18.35;;;5.50;99.90;;;;;;6181656;23;20343;-83
2022/01/13 11:57:09;;;;;;;100.13;18.65;;;5.50;99.90;;;;;;5062714;27;20417;-82
2022/01/13 11:59:34;;;;;;;95.47;17.65;;;5.50;99.90;;;;;;5049784;28;20053;-82
2022/01/13 12:02:21;;;;;;;96.53;18.35;;;5.60;99.90;;;;;;5049321;28;20049;-82
2022/01/13 12:05:03;;;;;;;76.70;15.25;;;5.60;99.90;;;;;;5058911;28;20095;-82
2022/01/13 12:07:44;;;;;;;69.63;15.68;;;5.60;99.90;;;;;;5048746;28;20073;-82
2022/01/13 12:10:20;;;;;;;84.18;16.15;;;5.60;99.90;;;;;;5042733;28;20055;-82
2022/01/13 12:12:45;;;;;;;74.68;15.35;;;5.60;99.90;;;;;;5039953;28;20044;-83
2022/01/13 12:15:17;;;;;;;86.40;16.73;;;5.60;99.90;;;;;;5042700;28;20097;-82
2022/01/13 12:17:49;;;;;;;85.87;17.07;;;5.60;99.90;;;;;;5042905;28;20699;-82
2022/01/13 12:20:39;;;;;;;73.83;15.57;;;5.70;99.90;;;;;;5046300;28;20082;-82
2022/01/13 12:23:16;;;;;;;69.32;15.93;;;5.70;99.90;;;;;;5046088;28;20044;-82
2022/01/13 12:25:43;;;;;;;73.63;15.38;;;5.70;99.90;;;;;;5045689;28;20041;-82
2022/01/13 12:28:15;;;;;;;80.40;15.57;;;5.70;99.90;;;;;;5046993;28;20449;-82
2022/01/13 12:30:40;;;;;;;77.80;17.17;;;5.70;99.90;;;;;;5028423;28;20136;-82
2022/01/13 12:33:08;;;;;;;80.63;16.73;;;5.70;99.90;;;;;;5045733;28;20184;-82
2022/01/13 12:35:34;;;;;;;90.53;17.40;;;5.70;99.90;;;;;;5041451;28;20056;-83
2022/01/13 12:38:21;;;;;;;81.38;17.65;;;5.70;99.90;;;;;;5024305;28;20483;-82
2022/01/13 12:41:02;;;;;;;77.32;16.30;;;5.70;99.90;;;;;;5045029;28;20491;-82
2022/01/13 12:43:50;;;;;;;75.50;16.92;;;5.80;99.90;;;;;;5045475;28;20127;-82
2022/01/13 12:46:19;;;;;;;65.80;17.20;;;5.80;99.90;;;;;;5056940;28;20045;-82
2022/01/13 12:48:48;;;;;;;68.20;15.48;;;5.80;99.90;;;;;;5055306;28;20051;-83
2022/01/13 12:51:16;;;;;;;70.13;16.75;;;5.90;99.90;;;;;;5046282;28;20045;-82
2022/01/13 12:53:43;;;;;;;70.82;16.38;;;5.90;99.90;;;;;;5034931;28;20040;-82
2022/01/13 12:56:21;;;;;;;66.05;16.80;;;5.90;99.90;;;;;;5038043;28;20458;-82